sensor_id;sensor_type;location;lat;lon;timestamp;pressure;altitude;pressure_sealevel;temperature;humidity
16481;BME280;44634;54.110;12.138;2023-02-13T00:00:52;103352.28;;;10.27;100.00
16481;BME280;44634;54.110;12.138;2023-02-13T00:03:21;103332.28;;;10.40;100.00
16481;BME280;44634;54.110;12.138;2023-02-13T00:05:49;103355.66;;;10.49;100.00
16481;BME280;44634;54.110;12.138;2023-02-13T00:08:16;103370.31;;;10.56;100.00
16481;BME280;44634;54.110;12.138;2023-02-13T00:10:46;103389.75;;;10.74;100.00
16481;BME280;44634;54.110;12.138;2023-02-13T00:13:14;103384.66;;;10.88;100.00
16481;BME280;44634;54.110;12.138;2023-02-13T00:15:42;103377.91;;;10.45;100.00
16481;BME280;44634;54.110;12.138;2023-02-13T00:18:10;103403.50;;;10.45;100.00
16481;BME280;44634;54.110;12.138;2023-02-13T00:20:38;103387.09;;;10.36;100.00
16481;BME280;44634;54.110;12.138;2023-02-13T00:23:06;103399.13;;;10.43;100.00
16481;BME280;44634;54.110;12.138;2023-02-13T00:25:33;103410.84;;;10.57;100.00
16481;BME280;44634;54.110;12.138;2023-02-13T00:28:03;103402.53;;;9.88;100.00
16481;BME280;44634;54.110;12.138;2023-02-13T00:30:31;103387.59;;;10.26;100.00
16481;BME280;44634;54.110;12.138;2023-02-13T00:32:59;103394.88;;;10.39;100.00
16481;BME280;44634;54.110;12.138;2023-02-13T00:35:26;103391.44;;;10.19;100.00
16481;BME280;44634;54.110;12.138;2023-02-13T00:37:54;103414.69;;;10.10;100.00
16481;BME280;44634;54.110;12.138;2023-02-13T00:40:22;103411.97;;;10.70;100.00
16481;BME280;44634;54.110;12.138;2023-02-13T00:42:50;103439.16;;;10.16;100.00
16481;BME280;44634;54.110;12.138;2023-02-13T00:45:19;103453.19;;;10.57;100.00
16481;BME280;44634;54.110;12.138;2023-02-13T00:47:47;103468.84;;;10.42;100.00
16481;BME280;44634;54.110;12.138;2023-02-13T00:50:15;103465.13;;;10.47;100.00
16481;BME280;44634;54.110;12.138;2023-02-13T00:52:42;103456.00;;;10.33;100.00
16481;BME280;44634;54.110;12.138;2023-02-13T00:55:10;103476.75;;;10.42;100.00
16481;BME280;44634;54.110;12.138;2023-02-13T00:57:38;103468.31;;;10.34;100.00
16481;BME280;44634;54.110;12.138;2023-02-13T01:00:07;103465.00;;;10.87;100.00
16481;BME280;44634;54.110;12.138;2023-02-13T01:02:36;103457.97;;;10.49;100.00
16481;BME280;44634;54.110;12.138;2023-02-13T01:05:04;103458.19;;;10.24;100.00
16481;BME280;44634;54.110;12.138;2023-02-13T01:07:32;103459.47;;;10.15;100.00
16481;BME280;44634;54.110;12.138;2023-02-13T01:10:00;103476.28;;;10.72;100.00
16481;BME280;44634;54.110;12.138;2023-02-13T01:12:28;103483.31;;;10.34;100.00
16481;BME280;44634;54.110;12.138;2023-02-13T01:14:55;103506.34;;;10.51;100.00
16481;BME280;44634;54.110;12.138;2023-02-13T01:17:23;103519.38;;;10.55;100.00
16481;BME280;44634;54.110;12.138;2023-02-13T01:19:53;103517.97;;;10.67;100.00
16481;BME280;44634;54.110;12.138;2023-02-13T01:22:20;103533.81;;;10.87;100.00
16481;BME280;44634;54.110;12.138;2023-02-13T01:24:48;103534.50;;;10.72;100.00
16481;BME280;44634;54.110;12.138;2023-02-13T01:27:16;103534.50;;;10.33;100.00
16481;BME280;44634;54.110;12.138;2023-02-13T01:29:44;103533.97;;;10.64;100.00
16481;BME280;44634;54.110;12.138;2023-02-13T01:32:11;103529.91;;;10.57;100.00
16481;BME280;44634;54.110;12.138;2023-02-13T01:34:39;103534.81;;;10.46;100.00
16481;BME280;44634;54.110;12.138;2023-02-13T01:37:08;103536.06;;;10.37;100.00
16481;BME280;44634;54.110;12.138;2023-02-13T01:39:36;103537.31;;;10.08;100.00
16481;BME280;44634;54.110;12.138;2023-02-13T01:42:04;103532.72;;;10.33;100.00
16481;BME280;44634;54.110;12.138;2023-02-13T01:44:45;103539.63;;;10.16;100.00
16481;BME280;44634;54.110;12.138;2023-02-13T01:47:16;103538.53;;;10.21;100.00
16481;BME280;44634;54.110;12.138;2023-02-13T01:49:46;103527.69;;;10.27;100.00
16481;BME280;44634;54.110;12.138;2023-02-13T01:52:16;103537.78;;;10.38;100.00
16481;BME280;44634;54.110;12.138;2023-02-13T01:54:45;103540.88;;;10.48;100.00
16481;BME280;44634;54.110;12.138;2023-02-13T01:57:17;103540.22;;;10.63;100.00
16481;BME280;44634;54.110;12.138;2023-02-13T01:59:51;103548.69;;;11.09;100.00
16481;BME280;44634;54.110;12.138;2023-02-13T02:02:21;103529.06;;;10.36;100.00
16481;BME280;44634;54.110;12.138;2023-02-13T02:04:50;103528.75;;;10.23;100.00
16481;BME280;44634;54.110;12.138;2023-02-13T02:07:23;103524.25;;;10.64;100.00
16481;BME280;44634;54.110;12.138;2023-02-13T02:09:55;103537.38;;;10.47;100.00
16481;BME280;44634;54.110;12.138;2023-02-13T02:12:29;103536.69;;;10.43;100.00
16481;BME280;44634;54.110;12.138;2023-02-13T02:14:59;103534.53;;;10.52;100.00
16481;BME280;44634;54.110;12.138;2023-02-13T02:17:28;103533.19;;;10.62;100.00
16481;BME280;44634;54.110;12.138;2023-02-13T02:20:03;103535.50;;;10.30;100.00
16481;BME280;44634;54.110;12.138;2023-02-13T02:25:53;103531.72;;;10.75;100.00
16481;BME280;44634;54.110;12.138;2023-02-13T02:32:15;103546.88;;;11.09;100.00
16481;BME280;44634;54.110;12.138;2023-02-13T02:34:51;103541.28;;;10.78;100.00
16481;BME280;44634;54.110;12.138;2023-02-13T02:37:35;103538.34;;;10.65;100.00
16481;BME280;44634;54.110;12.138;2023-02-13T02:40:17;103531.78;;;10.34;100.00
16481;BME280;44634;54.110;12.138;2023-02-13T02:42:59;103529.91;;;10.16;100.00
16481;BME280;44634;54.110;12.138;2023-02-13T02:45:36;103527.94;;;10.41;100.00
16481;BME280;44634;54.110;12.138;2023-02-13T02:48:10;103522.22;;;10.51;100.00
16481;BME280;44634;54.110;12.138;2023-02-13T02:51:05;103520.00;;;10.41;100.00
16481;BME280;44634;54.110;12.138;2023-02-13T02:53:38;103513.59;;;10.47;100.00
16481;BME280;44634;54.110;12.138;2023-02-13T02:56:12;103503.63;;;10.52;100.00
16481;BME280;44634;54.110;12.138;2023-02-13T02:58:45;103506.84;;;10.20;100.00
16481;BME280;44634;54.110;12.138;2023-02-13T03:01:32;103523.09;;;10.51;100.00
16481;BME280;44634;54.110;12.138;2023-02-13T03:04:25;103516.88;;;10.52;100.00
16481;BME280;44634;54.110;12.138;2023-02-13T03:07:15;103523.84;;;10.34;100.00
16481;BME280;44634;54.110;12.138;2023-02-13T03:09:46;103526.94;;;10.44;100.00
16481;BME280;44634;54.110;12.138;2023-02-13T03:12:37;103522.78;;;10.78;100.00
16481;BME280;44634;54.110;12.138;2023-02-13T03:15:25;103528.53;;;10.48;100.00
16481;BME280;44634;54.110;12.138;2023-02-13T03:17:53;103526.34;;;10.37;100.00
16481;BME280;44634;54.110;12.138;2023-02-13T03:20:45;103537.00;;;10.56;100.00
16481;BME280;44634;54.110;12.138;2023-02-13T03:23:40;103532.25;;;10.44;100.00
16481;BME280;44634;54.110;12.138;2023-02-13T03:29:27;103533.25;;;10.41;100.00
16481;BME280;44634;54.110;12.138;2023-02-13T03:32:22;103533.66;;;10.51;100.00
16481;BME280;44634;54.110;12.138;2023-02-13T03:35:00;103551.56;;;10.65;100.00
16481;BME280;44634;54.110;12.138;2023-02-13T03:37:53;103538.13;;;10.30;100.00
16481;BME280;44634;54.110;12.138;2023-02-13T03:40:28;103534.03;;;10.43;100.00
16481;BME280;44634;54.110;12.138;2023-02-13T03:43:03;103544.16;;;10.73;100.00
16481;BME280;44634;54.110;12.138;2023-02-13T03:45:36;103538.97;;;10.70;100.00
16481;BME280;44634;54.110;12.138;2023-02-13T03:48:25;103542.47;;;10.52;100.00
16481;BME280;44634;54.110;12.138;2023-02-13T03:51:18;103528.59;;;10.47;100.00
16481;BME280;44634;54.110;12.138;2023-02-13T03:53:53;103529.28;;;10.09;100.00
16481;BME280;44634;54.110;12.138;2023-02-13T03:56:23;103545.31;;;10.27;100.00
16481;BME280;44634;54.110;12.138;2023-02-13T03:59:17;103528.97;;;10.58;100.00
16481;BME280;44634;54.110;12.138;2023-02-13T04:01:58;103523.31;;;10.47;100.00
16481;BME280;44634;54.110;12.138;2023-02-13T04:04:34;103525.84;;;10.29;100.00
16481;BME280;44634;54.110;12.138;2023-02-13T04:07:09;103530.06;;;10.72;100.00
16481;BME280;44634;54.110;12.138;2023-02-13T04:09:57;103522.69;;;10.20;100.00
16481;BME280;44634;54.110;12.138;2023-02-13T04:12:36;103533.59;;;9.92;100.00
16481;BME280;44634;54.110;12.138;2023-02-13T04:15:08;103533.34;;;10.18;100.00
16481;BME280;44634;54.110;12.138;2023-02-13T04:17:39;103526.19;;;10.40;100.00
16481;BME280;44634;54.110;12.138;2023-02-13T04:20:10;103539.56;;;10.17;100.00
16481;BME280;44634;54.110;12.138;2023-02-13T04:22:41;103536.75;;;10.22;100.00
16481;BME280;44634;54.110;12.138;2023-02-13T04:25:12;103529.88;;;9.75;100.00
16481;BME280;44634;54.110;12.138;2023-02-13T04:27:40;103527.66;;;10.48;100.00
16481;BME280;44634;54.110;12.138;2023-02-13T04:30:08;103533.44;;;9.95;100.00
16481;BME280;44634;54.110;12.138;2023-02-13T04:32:36;103532.03;;;10.49;100.00
16481;BME280;44634;54.110;12.138;2023-02-13T04:35:05;103534.84;;;10.03;100.00
16481;BME280;44634;54.110;12.138;2023-02-13T04:37:32;103532.06;;;10.06;100.00
16481;BME280;44634;54.110;12.138;2023-02-13T04:40:00;103530.63;;;10.79;100.00
16481;BME280;44634;54.110;12.138;2023-02-13T04:42:29;103528.00;;;10.20;100.00
16481;BME280;44634;54.110;12.138;2023-02-13T04:44:57;103527.94;;;10.41;100.00
16481;BME280;44634;54.110;12.138;2023-02-13T04:47:25;103542.94;;;10.41;100.00
16481;BME280;44634;54.110;12.138;2023-02-13T04:49:53;103533.66;;;10.51;100.00
16481;BME280;44634;54.110;12.138;2023-02-13T04:52:20;103532.19;;;10.64;100.00
16481;BME280;44634;54.110;12.138;2023-02-13T04:54:48;103544.69;;;10.42;100.00
16481;BME280;44634;54.110;12.138;2023-02-13T04:57:16;103541.31;;;9.96;100.00
16481;BME280;44634;54.110;12.138;2023-02-13T04:59:46;103540.84;;;10.29;100.00
16481;BME280;44634;54.110;12.138;2023-02-13T05:02:13;103542.22;;;10.37;100.00
16481;BME280;44634;54.110;12.138;2023-02-13T05:04:41;103541.38;;;9.95;100.00
16481;BME280;44634;54.110;12.138;2023-02-13T05:07:09;103538.75;;;9.95;100.00
16481;BME280;44634;54.110;12.138;2023-02-13T05:09:36;103552.66;;;10.00;100.00
16481;BME280;44634;54.110;12.138;2023-02-13T05:12:07;103543.97;;;9.96;100.00
16481;BME280;44634;54.110;12.138;2023-02-13T05:14:35;103538.22;;;10.07;100.00
16481;BME280;44634;54.110;12.138;2023-02-13T05:17:04;103542.50;;;9.89;100.00
16481;BME280;44634;54.110;12.138;2023-02-13T05:19:31;103539.25;;;9.82;100.00
16481;BME280;44634;54.110;12.138;2023-02-13T05:21:59;103536.22;;;9.71;100.00
16481;BME280;44634;54.110;12.138;2023-02-13T05:24:44;103531.28;;;10.04;100.00
16481;BME280;44634;54.110;12.138;2023-02-13T05:27:12;103535.72;;;10.04;100.00
16481;BME280;44634;54.110;12.138;2023-02-13T05:29:40;103538.59;;;9.98;100.00
16481;BME280;44634;54.110;12.138;2023-02-13T05:32:09;103546.88;;;9.68;100.00
16481;BME280;44634;54.110;12.138;2023-02-13T05:34:37;103544.66;;;9.79;100.00
16481;BME280;44634;54.110;12.138;2023-02-13T05:37:04;103545.09;;;9.69;100.00
16481;BME280;44634;54.110;12.138;2023-02-13T05:39:32;103543.72;;;10.02;100.00
16481;BME280;44634;54.110;12.138;2023-02-13T05:42:00;103551.88;;;10.38;100.00
16481;BME280;44634;54.110;12.138;2023-02-13T05:44:30;103554.63;;;10.56;100.00
16481;BME280;44634;54.110;12.138;2023-02-13T05:46:58;103557.16;;;10.38;100.00
16481;BME280;44634;54.110;12.138;2023-02-13T05:49:27;103572.84;;;10.43;100.00
16481;BME280;44634;54.110;12.138;2023-02-13T05:51:55;103578.53;;;10.12;100.00
16481;BME280;44634;54.110;12.138;2023-02-13T05:54:22;103566.53;;;10.25;100.00
16481;BME280;44634;54.110;12.138;2023-02-13T05:56:50;103569.78;;;9.90;100.00
16481;BME280;44634;54.110;12.138;2023-02-13T05:59:18;103569.59;;;10.36;100.00
16481;BME280;44634;54.110;12.138;2023-02-13T06:01:49;103578.97;;;10.23;100.00
16481;BME280;44634;54.110;12.138;2023-02-13T06:04:16;103572.00;;;10.21;100.00
16481;BME280;44634;54.110;12.138;2023-02-13T06:06:46;103587.38;;;10.11;100.00
16481;BME280;44634;54.110;12.138;2023-02-13T06:09:13;103582.47;;;10.24;100.00
16481;BME280;44634;54.110;12.138;2023-02-13T06:11:41;103586.13;;;10.41;100.00
16481;BME280;44634;54.110;12.138;2023-02-13T06:14:09;103582.88;;;10.35;100.00
16481;BME280;44634;54.110;12.138;2023-02-13T06:16:37;103582.75;;;10.58;100.00
16481;BME280;44634;54.110;12.138;2023-02-13T06:19:05;103581.84;;;9.75;100.00
16481;BME280;44634;54.110;12.138;2023-02-13T06:21:33;103579.81;;;10.64;100.00
16481;BME280;44634;54.110;12.138;2023-02-13T06:24:05;103584.00;;;10.50;100.00
16481;BME280;44634;54.110;12.138;2023-02-13T06:26:34;103579.59;;;10.08;100.00
16481;BME280;44634;54.110;12.138;2023-02-13T06:29:02;103579.00;;;10.43;100.00
16481;BME280;44634;54.110;12.138;2023-02-13T06:31:32;103581.13;;;10.13;100.00
16481;BME280;44634;54.110;12.138;2023-02-13T06:33:59;103581.94;;;10.16;100.00
16481;BME280;44634;54.110;12.138;2023-02-13T06:36:27;103577.19;;;10.24;100.00
16481;BME280;44634;54.110;12.138;2023-02-13T06:38:55;103589.97;;;10.12;100.00
16481;BME280;44634;54.110;12.138;2023-02-13T06:41:24;103583.53;;;9.98;100.00
16481;BME280;44634;54.110;12.138;2023-02-13T06:43:52;103588.88;;;10.18;100.00
16481;BME280;44634;54.110;12.138;2023-02-13T06:46:20;103591.72;;;9.92;100.00
16481;BME280;44634;54.110;12.138;2023-02-13T06:48:48;103589.66;;;10.20;100.00
16481;BME280;44634;54.110;12.138;2023-02-13T06:51:15;103591.34;;;10.43;100.00
16481;BME280;44634;54.110;12.138;2023-02-13T06:53:43;103588.16;;;10.76;100.00
16481;BME280;44634;54.110;12.138;2023-02-13T06:56:11;103601.34;;;10.57;100.00
16481;BME280;44634;54.110;12.138;2023-02-13T06:58:40;103613.25;;;10.47;100.00
16481;BME280;44634;54.110;12.138;2023-02-13T07:01:08;103612.78;;;10.57;100.00
16481;BME280;44634;54.110;12.138;2023-02-13T07:03:36;103606.09;;;10.49;100.00
16481;BME280;44634;54.110;12.138;2023-02-13T07:06:04;103605.28;;;10.67;100.00
16481;BME280;44634;54.110;12.138;2023-02-13T07:08:32;103605.28;;;10.26;100.00
16481;BME280;44634;54.110;12.138;2023-02-13T07:10:59;103605.09;;;10.71;100.00
16481;BME280;44634;54.110;12.138;2023-02-13T07:13:27;103607.78;;;9.87;100.00
16481;BME280;44634;54.110;12.138;2023-02-13T07:15:59;103595.75;;;10.22;100.00
16481;BME280;44634;54.110;12.138;2023-02-13T07:18:27;103599.44;;;10.18;100.00
16481;BME280;44634;54.110;12.138;2023-02-13T07:20:57;103595.38;;;10.52;100.00
16481;BME280;44634;54.110;12.138;2023-02-13T07:23:25;103600.91;;;10.25;100.00
16481;BME280;44634;54.110;12.138;2023-02-13T07:25:52;103601.84;;;10.24;100.00
16481;BME280;44634;54.110;12.138;2023-02-13T07:28:20;103605.31;;;10.47;100.00
16481;BME280;44634;54.110;12.138;2023-02-13T07:30:48;103611.25;;;10.52;100.00
16481;BME280;44634;54.110;12.138;2023-02-13T07:33:17;103616.22;;;10.17;100.00
16481;BME280;44634;54.110;12.138;2023-02-13T07:35:45;103615.25;;;10.41;100.00
16481;BME280;44634;54.110;12.138;2023-02-13T07:38:13;103608.75;;;10.49;100.00
16481;BME280;44634;54.110;12.138;2023-02-13T07:40:41;103608.25;;;10.80;100.00
16481;BME280;44634;54.110;12.138;2023-02-13T07:43:09;103617.41;;;10.52;100.00
16481;BME280;44634;54.110;12.138;2023-02-13T07:45:37;103609.94;;;9.99;100.00
16481;BME280;44634;54.110;12.138;2023-02-13T07:48:05;103614.75;;;10.72;100.00
16481;BME280;44634;54.110;12.138;2023-02-13T07:50:34;103612.25;;;10.49;100.00
16481;BME280;44634;54.110;12.138;2023-02-13T07:53:02;103617.03;;;10.19;100.00
16481;BME280;44634;54.110;12.138;2023-02-13T07:55:30;103604.41;;;10.26;100.00
16481;BME280;44634;54.110;12.138;2023-02-13T07:57:59;103610.72;;;10.23;100.00
16481;BME280;44634;54.110;12.138;2023-02-13T08:00:27;103617.31;;;10.54;100.00
16481;BME280;44634;54.110;12.138;2023-02-13T08:02:57;103622.03;;;11.07;100.00
16481;BME280;44634;54.110;12.138;2023-02-13T08:05:25;103618.13;;;10.76;100.00
16481;BME280;44634;54.110;12.138;2023-02-13T08:07:54;103616.47;;;10.53;100.00
16481;BME280;44634;54.110;12.138;2023-02-13T08:10:22;103613.56;;;10.39;100.00
16481;BME280;44634;54.110;12.138;2023-02-13T08:13:08;103615.88;;;10.67;100.00
16481;BME280;44634;54.110;12.138;2023-02-13T08:15:37;103614.53;;;10.77;100.00
16481;BME280;44634;54.110;12.138;2023-02-13T08:18:05;103610.34;;;10.92;100.00
16481;BME280;44634;54.110;12.138;2023-02-13T08:20:32;103619.25;;;10.70;100.00
16481;BME280;44634;54.110;12.138;2023-02-13T08:23:03;103618.97;;;10.77;100.00
16481;BME280;44634;54.110;12.138;2023-02-13T08:25:31;103611.78;;;10.60;100.00
16481;BME280;44634;54.110;12.138;2023-02-13T08:27:59;103610.28;;;10.93;100.00
16481;BME280;44634;54.110;12.138;2023-02-13T08:30:27;103616.75;;;10.47;100.00
16481;BME280;44634;54.110;12.138;2023-02-13T08:32:55;103615.56;;;10.93;100.00
16481;BME280;44634;54.110;12.138;2023-02-13T08:35:23;103619.03;;;11.14;100.00
16481;BME280;44634;54.110;12.138;2023-02-13T08:37:55;103620.47;;;11.02;100.00
16481;BME280;44634;54.110;12.138;2023-02-13T08:40:24;103627.84;;;10.55;100.00
16481;BME280;44634;54.110;12.138;2023-02-13T08:42:58;103618.19;;;11.32;100.00
16481;BME280;44634;54.110;12.138;2023-02-13T08:45:26;103626.75;;;11.38;100.00
16481;BME280;44634;54.110;12.138;2023-02-13T08:47:55;103626.63;;;11.22;100.00
16481;BME280;44634;54.110;12.138;2023-02-13T08:50:23;103628.91;;;10.51;100.00
16481;BME280;44634;54.110;12.138;2023-02-13T08:52:51;103627.06;;;10.73;100.00
16481;BME280;44634;54.110;12.138;2023-02-13T08:55:19;103633.94;;;10.57;100.00
16481;BME280;44634;54.110;12.138;2023-02-13T08:57:48;103623.59;;;11.11;100.00
16481;BME280;44634;54.110;12.138;2023-02-13T09:00:16;103626.50;;;10.25;100.00
16481;BME280;44634;54.110;12.138;2023-02-13T09:02:44;103621.50;;;10.59;100.00
16481;BME280;44634;54.110;12.138;2023-02-13T09:05:12;103616.97;;;11.21;100.00
16481;BME280;44634;54.110;12.138;2023-02-13T09:07:40;103628.94;;;10.90;100.00
16481;BME280;44634;54.110;12.138;2023-02-13T09:10:08;103626.53;;;11.05;100.00
16481;BME280;44634;54.110;12.138;2023-02-13T09:12:36;103623.56;;;10.73;100.00
16481;BME280;44634;54.110;12.138;2023-02-13T09:15:06;103621.38;;;10.62;100.00
16481;BME280;44634;54.110;12.138;2023-02-13T09:17:34;103621.03;;;10.29;100.00
16481;BME280;44634;54.110;12.138;2023-02-13T09:20:02;103631.34;;;10.76;100.00
16481;BME280;44634;54.110;12.138;2023-02-13T09:22:30;103627.25;;;11.27;100.00
16481;BME280;44634;54.110;12.138;2023-02-13T09:24:58;103636.97;;;10.68;100.00
16481;BME280;44634;54.110;12.138;2023-02-13T09:27:29;103628.78;;;10.75;100.00
16481;BME280;44634;54.110;12.138;2023-02-13T09:29:57;103632.47;;;10.50;100.00
16481;BME280;44634;54.110;12.138;2023-02-13T09:32:27;103631.31;;;10.96;100.00
16481;BME280;44634;54.110;12.138;2023-02-13T09:34:55;103636.78;;;10.53;100.00
16481;BME280;44634;54.110;12.138;2023-02-13T09:37:22;103640.16;;;10.56;100.00
16481;BME280;44634;54.110;12.138;2023-02-13T09:39:50;103642.34;;;11.06;100.00
16481;BME280;44634;54.110;12.138;2023-02-13T09:42:20;103636.72;;;11.32;100.00
16481;BME280;44634;54.110;12.138;2023-02-13T09:44:50;103641.16;;;10.74;100.00
16481;BME280;44634;54.110;12.138;2023-02-13T09:47:28;103637.50;;;10.77;100.00
16481;BME280;44634;54.110;12.138;2023-02-13T09:49:59;103647.78;;;11.03;100.00
16481;BME280;44634;54.110;12.138;2023-02-13T09:52:32;103640.16;;;10.56;100.00
16481;BME280;44634;54.110;12.138;2023-02-13T09:55:00;103633.97;;;10.96;100.00
16481;BME280;44634;54.110;12.138;2023-02-13T09:57:32;103632.28;;;10.75;100.00
16481;BME280;44634;54.110;12.138;2023-02-13T10:00:05;103637.19;;;10.43;100.00
16481;BME280;44634;54.110;12.138;2023-02-13T10:02:52;103635.41;;;11.03;100.00
16481;BME280;44634;54.110;12.138;2023-02-13T10:05:37;103623.88;;;10.65;100.00
16481;BME280;44634;54.110;12.138;2023-02-13T10:08:13;103629.50;;;10.78;100.00
16481;BME280;44634;54.110;12.138;2023-02-13T10:10:51;103636.84;;;11.11;100.00
16481;BME280;44634;54.110;12.138;2023-02-13T10:13:45;103636.13;;;10.48;100.00
16481;BME280;44634;54.110;12.138;2023-02-13T10:16:16;103636.41;;;11.01;100.00
16481;BME280;44634;54.110;12.138;2023-02-13T10:18:50;103645.22;;;11.01;100.00
16481;BME280;44634;54.110;12.138;2023-02-13T10:21:22;103642.06;;;11.12;100.00
16481;BME280;44634;54.110;12.138;2023-02-13T10:23:57;103637.38;;;11.38;100.00
16481;BME280;44634;54.110;12.138;2023-02-13T10:26:30;103646.31;;;11.16;100.00
16481;BME280;44634;54.110;12.138;2023-02-13T10:29:14;103639.25;;;10.57;100.00
16481;BME280;44634;54.110;12.138;2023-02-13T10:32:06;103652.75;;;11.48;100.00
16481;BME280;44634;54.110;12.138;2023-02-13T10:34:41;103649.22;;;11.10;100.00
16481;BME280;44634;54.110;12.138;2023-02-13T10:37:13;103647.81;;;10.62;100.00
16481;BME280;44634;54.110;12.138;2023-02-13T10:39:43;103643.78;;;11.13;100.00
16481;BME280;44634;54.110;12.138;2023-02-13T10:42:19;103649.81;;;11.17;100.00
16481;BME280;44634;54.110;12.138;2023-02-13T10:45:14;103640.47;;;10.89;100.00
16481;BME280;44634;54.110;12.138;2023-02-13T10:47:57;103632.47;;;10.50;100.00
16481;BME280;44634;54.110;12.138;2023-02-13T10:50:35;103633.25;;;11.12;100.00
16481;BME280;44634;54.110;12.138;2023-02-13T10:53:12;103642.00;;;10.75;100.00
16481;BME280;44634;54.110;12.138;2023-02-13T10:55:54;103639.13;;;10.99;100.00
16481;BME280;44634;54.110;12.138;2023-02-13T10:58:35;103644.31;;;11.59;100.00
16481;BME280;44634;54.110;12.138;2023-02-13T11:01:09;103652.91;;;11.45;100.00
16481;BME280;44634;54.110;12.138;2023-02-13T11:03:40;103655.75;;;11.22;100.00
16481;BME280;44634;54.110;12.138;2023-02-13T11:06:14;103653.69;;;11.28;100.00
16481;BME280;44634;54.110;12.138;2023-02-13T11:08:44;103657.03;;;11.13;100.00
16481;BME280;44634;54.110;12.138;2023-02-13T11:11:29;103659.50;;;11.37;100.00
16481;BME280;44634;54.110;12.138;2023-02-13T11:14:16;103651.47;;;11.38;100.00
16481;BME280;44634;54.110;12.138;2023-02-13T11:16:50;103662.06;;;10.60;100.00
16481;BME280;44634;54.110;12.138;2023-02-13T11:19:23;103656.50;;;10.86;100.00
16481;BME280;44634;54.110;12.138;2023-02-13T11:21:58;103652.25;;;11.21;100.00
16481;BME280;44634;54.110;12.138;2023-02-13T11:24:28;103652.91;;;10.87;100.00
16481;BME280;44634;54.110;12.138;2023-02-13T11:26:59;103653.84;;;10.66;100.00
16481;BME280;44634;54.110;12.138;2023-02-13T11:29:29;103651.78;;;11.12;100.00
16481;BME280;44634;54.110;12.138;2023-02-13T11:32:03;103656.50;;;10.86;100.00
16481;BME280;44634;54.110;12.138;2023-02-13T11:34:33;103647.16;;;10.78;100.00
16481;BME280;44634;54.110;12.138;2023-02-13T11:37:18;103654.38;;;11.13;100.00
16481;BME280;44634;54.110;12.138;2023-02-13T11:39:48;103652.25;;;10.62;100.00
16481;BME280;44634;54.110;12.138;2023-02-13T11:42:24;103653.00;;;10.23;100.00
16481;BME280;44634;54.110;12.138;2023-02-13T11:44:55;103649.47;;;10.85;100.00
16481;BME280;44634;54.110;12.138;2023-02-13T11:47:38;103650.50;;;11.01;100.00
16481;BME280;44634;54.110;12.138;2023-02-13T11:50:20;103650.53;;;10.61;100.00
16481;BME280;44634;54.110;12.138;2023-02-13T11:52:57;103653.03;;;10.84;100.00
16481;BME280;44634;54.110;12.138;2023-02-13T11:55:31;103644.78;;;11.11;100.00
16481;BME280;44634;54.110;12.138;2023-02-13T11:58:01;103657.63;;;11.20;100.00
16481;BME280;44634;54.110;12.138;2023-02-13T12:00:32;103649.03;;;11.15;100.00
16481;BME280;44634;54.110;12.138;2023-02-13T12:03:23;103662.22;;;10.96;100.00
16481;BME280;44634;54.110;12.138;2023-02-13T12:06:04;103656.00;;;10.97;100.00
16481;BME280;44634;54.110;12.138;2023-02-13T12:08:35;103655.09;;;10.78;100.00
16481;BME280;44634;54.110;12.138;2023-02-13T12:11:15;103667.88;;;10.88;100.00
16481;BME280;44634;54.110;12.138;2023-02-13T12:13:48;103663.69;;;10.83;100.00
16481;BME280;44634;54.110;12.138;2023-02-13T12:16:22;103657.88;;;10.54;100.00
16481;BME280;44634;54.110;12.138;2023-02-13T12:18:55;103667.75;;;10.71;100.00
16481;BME280;44634;54.110;12.138;2023-02-13T12:21:39;103662.31;;;10.54;100.00
16481;BME280;44634;54.110;12.138;2023-02-13T12:24:20;103653.31;;;10.78;100.00
16481;BME280;44634;54.110;12.138;2023-02-13T12:27:03;103657.59;;;10.81;100.00
16481;BME280;44634;54.110;12.138;2023-02-13T12:29:49;103662.09;;;10.38;100.00
16481;BME280;44634;54.110;12.138;2023-02-13T12:32:29;103662.03;;;10.80;100.00
16481;BME280;44634;54.110;12.138;2023-02-13T12:35:31;103671.25;;;10.71;100.00
16481;BME280;44634;54.110;12.138;2023-02-13T12:38:06;103662.72;;;10.65;100.00
16481;BME280;44634;54.110;12.138;2023-02-13T12:40:56;103649.47;;;10.65;100.00
16481;BME280;44634;54.110;12.138;2023-02-13T12:43:57;103645.38;;;10.37;100.00
16481;BME280;44634;54.110;12.138;2023-02-13T12:46:36;103650.03;;;10.73;100.00
16481;BME280;44634;54.110;12.138;2023-02-13T12:49:24;103649.06;;;10.54;100.00
16481;BME280;44634;54.110;12.138;2023-02-13T12:52:07;103652.22;;;11.02;100.00
16481;BME280;44634;54.110;12.138;2023-02-13T12:54:52;103652.59;;;10.75;100.00
16481;BME280;44634;54.110;12.138;2023-02-13T12:57:38;103652.47;;;10.57;100.00
16481;BME280;44634;54.110;12.138;2023-02-13T13:00:16;103657.84;;;10.95;100.00
16481;BME280;44634;54.110;12.138;2023-02-13T13:02:58;103650.75;;;11.16;100.00
16481;BME280;44634;54.110;12.138;2023-02-13T13:05:46;103643.19;;;10.67;100.00
16481;BME280;44634;54.110;12.138;2023-02-13T13:12:10;103654.56;;;10.69;100.00